sensor_id;sensor_type;location;lat;lon;timestamp;pressure;altitude;pressure_sealevel;temperature;humidity
68320;BME280;55168;51.120;17.024;2023-02-19T00:00:00;99960;;;5.2;100.0
68320;BME280;55168;51.120;17.024;2023-02-19T00:01:00;99960;;;5.2;100.0
68320;BME280;55168;51.120;17.024;2023-02-19T00:02:00;99960;;;5.2;100.0
68320;BME280;55168;51.120;17.024;2023-02-19T00:03:00;99960;;;5.2;100.0
68320;BME280;55168;51.120;17.024;2023-02-19T00:04:01;99960;;;5.2;100.0
68320;BME280;55168;51.120;17.024;2023-02-19T00:05:00;99960;;;5.2;100.0
68320;BME280;55168;51.120;17.024;2023-02-19T00:06:00;99960;;;5.2;100.0
68320;BME280;55168;51.120;17.024;2023-02-19T00:07:00;99950;;;5.2;100.0
68320;BME280;55168;51.120;17.024;2023-02-19T00:08:00;99960;;;5.2;100.0
68320;BME280;55168;51.120;17.024;2023-02-19T00:09:00;99960;;;5.2;100.0
68320;BME280;55168;51.120;17.024;2023-02-19T00:10:00;99960;;;5.2;100.0
68320;BME280;55168;51.120;17.024;2023-02-19T00:11:02;99960;;;5.2;100.0
68320;BME280;55168;51.120;17.024;2023-02-19T00:12:00;99960;;;5.2;100.0
68320;BME280;55168;51.120;17.024;2023-02-19T00:13:00;99950;;;5.2;100.0
68320;BME280;55168;51.120;17.024;2023-02-19T00:14:00;99960;;;5.2;100.0
68320;BME280;55168;51.120;17.024;2023-02-19T00:15:00;99960;;;5.2;100.0
68320;BME280;55168;51.120;17.024;2023-02-19T00:16:04;99960;;;5.2;100.0
68320;BME280;55168;51.120;17.024;2023-02-19T00:17:00;99950;;;5.2;100.0
68320;BME280;55168;51.120;17.024;2023-02-19T00:18:00;99960;;;5.2;100.0
68320;BME280;55168;51.120;17.024;2023-02-19T00:19:00;99960;;;5.2;100.0
68320;BME280;55168;51.120;17.024;2023-02-19T00:20:00;99960;;;5.2;100.0
68320;BME280;55168;51.120;17.024;2023-02-19T00:21:00;99960;;;5.2;100.0
68320;BME280;55168;51.120;17.024;2023-02-19T00:22:00;99960;;;5.2;100.0
68320;BME280;55168;51.120;17.024;2023-02-19T00:23:00;99950;;;5.2;100.0
68320;BME280;55168;51.120;17.024;2023-02-19T00:24:01;99950;;;5.2;100.0
68320;BME280;55168;51.120;17.024;2023-02-19T00:25:00;99950;;;5.2;100.0
68320;BME280;55168;51.120;17.024;2023-02-19T00:26:01;99950;;;5.2;100.0
68320;BME280;55168;51.120;17.024;2023-02-19T00:27:00;99950;;;5.2;100.0
68320;BME280;55168;51.120;17.024;2023-02-19T00:28:00;99950;;;5.2;100.0
68320;BME280;55168;51.120;17.024;2023-02-19T00:29:00;99950;;;5.2;100.0
68320;BME280;55168;51.120;17.024;2023-02-19T00:30:00;99950;;;5.2;100.0
68320;BME280;55168;51.120;17.024;2023-02-19T00:31:05;99950;;;5.2;100.0
68320;BME280;55168;51.120;17.024;2023-02-19T00:32:00;99950;;;5.2;100.0
68320;BME280;55168;51.120;17.024;2023-02-19T00:33:00;99940;;;5.2;100.0
68320;BME280;55168;51.120;17.024;2023-02-19T00:34:01;99940;;;5.2;100.0
68320;BME280;55168;51.120;17.024;2023-02-19T00:35:00;99940;;;5.1;100.0
68320;BME280;55168;51.120;17.024;2023-02-19T00:36:01;99940;;;5.1;100.0
68320;BME280;55168;51.120;17.024;2023-02-19T00:37:00;99940;;;5.1;100.0
68320;BME280;55168;51.120;17.024;2023-02-19T00:38:00;99950;;;5.2;100.0
68320;BME280;55168;51.120;17.024;2023-02-19T00:39:00;99940;;;5.2;100.0
68320;BME280;55168;51.120;17.024;2023-02-19T00:40:00;99940;;;5.2;100.0
68320;BME280;55168;51.120;17.024;2023-02-19T00:41:00;99940;;;5.2;100.0
68320;BME280;55168;51.120;17.024;2023-02-19T00:42:00;99940;;;5.2;100.0
68320;BME280;55168;51.120;17.024;2023-02-19T00:43:00;99940;;;5.2;100.0
68320;BME280;55168;51.120;17.024;2023-02-19T00:44:01;99940;;;5.2;100.0
68320;BME280;55168;51.120;17.024;2023-02-19T00:45:00;99940;;;5.2;100.0
68320;BME280;55168;51.120;17.024;2023-02-19T00:46:00;99940;;;5.2;100.0
68320;BME280;55168;51.120;17.024;2023-02-19T00:47:00;99940;;;5.2;100.0
68320;BME280;55168;51.120;17.024;2023-02-19T00:48:00;99940;;;5.1;100.0
68320;BME280;55168;51.120;17.024;2023-02-19T00:49:00;99940;;;5.2;100.0
68320;BME280;55168;51.120;17.024;2023-02-19T00:50:00;99940;;;5.2;100.0
68320;BME280;55168;51.120;17.024;2023-02-19T00:51:00;99940;;;5.2;100.0
68320;BME280;55168;51.120;17.024;2023-02-19T00:52:00;99930;;;5.2;100.0
68320;BME280;55168;51.120;17.024;2023-02-19T00:53:00;99930;;;5.2;100.0
68320;BME280;55168;51.120;17.024;2023-02-19T00:54:00;99930;;;5.2;100.0
68320;BME280;55168;51.120;17.024;2023-02-19T00:55:00;99930;;;5.2;100.0
68320;BME280;55168;51.120;17.024;2023-02-19T00:56:00;99930;;;5.2;100.0
68320;BME280;55168;51.120;17.024;2023-02-19T00:57:00;99930;;;5.2;100.0
68320;BME280;55168;51.120;17.024;2023-02-19T00:58:00;99930;;;5.2;100.0
68320;BME280;55168;51.120;17.024;2023-02-19T00:59:00;99920;;;5.2;100.0
68320;BME280;55168;51.120;17.024;2023-02-19T01:00:00;99930;;;5.2;100.0
68320;BME280;55168;51.120;17.024;2023-02-19T01:01:00;99930;;;5.2;100.0
68320;BME280;55168;51.120;17.024;2023-02-19T01:02:00;99930;;;5.2;100.0
68320;BME280;55168;51.120;17.024;2023-02-19T01:03:00;99920;;;5.2;100.0
68320;BME280;55168;51.120;17.024;2023-02-19T01:04:00;99920;;;5.2;100.0
68320;BME280;55168;51.120;17.024;2023-02-19T01:05:00;99920;;;5.2;100.0
68320;BME280;55168;51.120;17.024;2023-02-19T01:06:00;99920;;;5.2;100.0
68320;BME280;55168;51.120;17.024;2023-02-19T01:07:00;99910;;;5.2;100.0
68320;BME280;55168;51.120;17.024;2023-02-19T01:08:00;99910;;;5.2;100.0
68320;BME280;55168;51.120;17.024;2023-02-19T01:09:00;99910;;;5.2;100.0
68320;BME280;55168;51.120;17.024;2023-02-19T01:10:00;99910;;;5.2;100.0
68320;BME280;55168;51.120;17.024;2023-02-19T01:11:00;99900;;;5.2;100.0
68320;BME280;55168;51.120;17.024;2023-02-19T01:12:00;99900;;;5.2;100.0
68320;BME280;55168;51.120;17.024;2023-02-19T01:13:00;99900;;;5.2;100.0
68320;BME280;55168;51.120;17.024;2023-02-19T01:14:00;99900;;;5.2;100.0
68320;BME280;55168;51.120;17.024;2023-02-19T01:15:00;99900;;;5.2;100.0
68320;BME280;55168;51.120;17.024;2023-02-19T01:16:02;99900;;;5.2;100.0
68320;BME280;55168;51.120;17.024;2023-02-19T01:17:00;99900;;;5.2;100.0
68320;BME280;55168;51.120;17.024;2023-02-19T01:18:00;99900;;;5.2;100.0
68320;BME280;55168;51.120;17.024;2023-02-19T01:19:00;99900;;;5.1;100.0
68320;BME280;55168;51.120;17.024;2023-02-19T01:20:00;99900;;;5.2;100.0
68320;BME280;55168;51.120;17.024;2023-02-19T01:21:03;99900;;;5.2;100.0
68320;BME280;55168;51.120;17.024;2023-02-19T01:22:00;99900;;;5.2;100.0
68320;BME280;55168;51.120;17.024;2023-02-19T01:23:00;99900;;;5.2;100.0
68320;BME280;55168;51.120;17.024;2023-02-19T01:24:00;99900;;;5.2;100.0
68320;BME280;55168;51.120;17.024;2023-02-19T01:25:00;99900;;;5.2;100.0
68320;BME280;55168;51.120;17.024;2023-02-19T01:26:02;99900;;;5.2;100.0
68320;BME280;55168;51.120;17.024;2023-02-19T01:27:00;99900;;;5.2;100.0
68320;BME280;55168;51.120;17.024;2023-02-19T01:28:00;99900;;;5.2;100.0
68320;BME280;55168;51.120;17.024;2023-02-19T01:29:00;99900;;;5.2;100.0
68320;BME280;55168;51.120;17.024;2023-02-19T01:30:00;99900;;;5.2;100.0
68320;BME280;55168;51.120;17.024;2023-02-19T01:31:01;99900;;;5.2;100.0
68320;BME280;55168;51.120;17.024;2023-02-19T01:32:00;99900;;;5.2;100.0
68320;BME280;55168;51.120;17.024;2023-02-19T01:33:00;99890;;;5.2;100.0
68320;BME280;55168;51.120;17.024;2023-02-19T01:34:00;99890;;;5.2;100.0
68320;BME280;55168;51.120;17.024;2023-02-19T01:35:00;99890;;;5.1;100.0
68320;BME280;55168;51.120;17.024;2023-02-19T01:36:02;99890;;;5.1;100.0
68320;BME280;55168;51.120;17.024;2023-02-19T01:37:00;99890;;;5.1;100.0
68320;BME280;55168;51.120;17.024;2023-02-19T01:38:00;99880;;;5.1;100.0
68320;BME280;55168;51.120;17.024;2023-02-19T01:39:00;99890;;;5.1;100.0
68320;BME280;55168;51.120;17.024;2023-02-19T01:40:00;99890;;;5.1;100.0
68320;BME280;55168;51.120;17.024;2023-02-19T01:41:01;99890;;;5.1;100.0
68320;BME280;55168;51.120;17.024;2023-02-19T01:42:00;99890;;;5.0;100.0
68320;BME280;55168;51.120;17.024;2023-02-19T01:43:00;99890;;;5.0;100.0
68320;BME280;55168;51.120;17.024;2023-02-19T01:44:03;99890;;;5.0;100.0
68320;BME280;55168;51.120;17.024;2023-02-19T01:46:00;99890;;;5.0;100.0
68320;BME280;55168;51.120;17.024;2023-02-19T01:47:00;99890;;;5.0;100.0
68320;BME280;55168;51.120;17.024;2023-02-19T01:48:02;99890;;;5.0;100.0
68320;BME280;55168;51.120;17.024;2023-02-19T01:49:02;99890;;;5.1;100.0
68320;BME280;55168;51.120;17.024;2023-02-19T01:50:00;99890;;;5.1;100.0
68320;BME280;55168;51.120;17.024;2023-02-19T01:51:02;99890;;;5.1;100.0
68320;BME280;55168;51.120;17.024;2023-02-19T01:52:03;99880;;;5.1;100.0
68320;BME280;55168;51.120;17.024;2023-02-19T01:53:00;99870;;;5.1;100.0
68320;BME280;55168;51.120;17.024;2023-02-19T01:54:00;99870;;;5.1;100.0
68320;BME280;55168;51.120;17.024;2023-02-19T01:55:00;99870;;;5.1;100.0
68320;BME280;55168;51.120;17.024;2023-02-19T01:56:00;99870;;;5.1;100.0
68320;BME280;55168;51.120;17.024;2023-02-19T01:57:00;99870;;;5.1;100.0
68320;BME280;55168;51.120;17.024;2023-02-19T01:58:00;99860;;;5.1;100.0
68320;BME280;55168;51.120;17.024;2023-02-19T01:59:00;99860;;;5.1;100.0
68320;BME280;55168;51.120;17.024;2023-02-19T02:00:03;99860;;;5.1;100.0
68320;BME280;55168;51.120;17.024;2023-02-19T02:01:00;99860;;;5.1;100.0
68320;BME280;55168;51.120;17.024;2023-02-19T02:02:00;99860;;;5.1;100.0
68320;BME280;55168;51.120;17.024;2023-02-19T02:03:00;99860;;;5.1;100.0
68320;BME280;55168;51.120;17.024;2023-02-19T02:04:00;99850;;;5.1;100.0
68320;BME280;55168;51.120;17.024;2023-02-19T02:05:00;99850;;;5.1;100.0
68320;BME280;55168;51.120;17.024;2023-02-19T02:06:01;99850;;;5.1;100.0
68320;BME280;55168;51.120;17.024;2023-02-19T02:07:01;99850;;;5.1;100.0
68320;BME280;55168;51.120;17.024;2023-02-19T02:08:00;99850;;;5.1;100.0
68320;BME280;55168;51.120;17.024;2023-02-19T02:09:00;99850;;;5.1;100.0
68320;BME280;55168;51.120;17.024;2023-02-19T02:10:00;99840;;;5.1;100.0
68320;BME280;55168;51.120;17.024;2023-02-19T02:11:00;99840;;;5.1;100.0
68320;BME280;55168;51.120;17.024;2023-02-19T02:12:00;99850;;;5.1;100.0
68320;BME280;55168;51.120;17.024;2023-02-19T02:13:00;99850;;;5.1;100.0
68320;BME280;55168;51.120;17.024;2023-02-19T02:14:00;99840;;;5.1;100.0
68320;BME280;55168;51.120;17.024;2023-02-19T02:15:00;99840;;;5.1;100.0
68320;BME280;55168;51.120;17.024;2023-02-19T02:17:07;99830;;;5.1;100.0
68320;BME280;55168;51.120;17.024;2023-02-19T02:18:03;99830;;;5.1;100.0
68320;BME280;55168;51.120;17.024;2023-02-19T02:20:06;99840;;;5.1;100.0
68320;BME280;55168;51.120;17.024;2023-02-19T02:21:09;99840;;;5.1;100.0
68320;BME280;55168;51.120;17.024;2023-02-19T02:22:04;99830;;;5.0;100.0
68320;BME280;55168;51.120;17.024;2023-02-19T02:25:04;99830;;;5.1;100.0
68320;BME280;55168;51.120;17.024;2023-02-19T02:26:08;99830;;;5.1;100.0
68320;BME280;55168;51.120;17.024;2023-02-19T02:27:05;99830;;;5.1;100.0
68320;BME280;55168;51.120;17.024;2023-02-19T02:28:04;99820;;;5.1;100.0
68320;BME280;55168;51.120;17.024;2023-02-19T02:30:04;99820;;;5.1;100.0
68320;BME280;55168;51.120;17.024;2023-02-19T02:31:01;99820;;;5.1;100.0
68320;BME280;55168;51.120;17.024;2023-02-19T02:32:02;99820;;;5.1;100.0
68320;BME280;55168;51.120;17.024;2023-02-19T02:33:02;99820;;;5.1;100.0
68320;BME280;55168;51.120;17.024;2023-02-19T02:34:01;99820;;;5.1;100.0
68320;BME280;55168;51.120;17.024;2023-02-19T02:35:03;99820;;;5.1;100.0
68320;BME280;55168;51.120;17.024;2023-02-19T02:36:08;99820;;;5.1;100.0
68320;BME280;55168;51.120;17.024;2023-02-19T02:37:00;99810;;;5.1;100.0
68320;BME280;55168;51.120;17.024;2023-02-19T02:38:02;99810;;;5.1;100.0
68320;BME280;55168;51.120;17.024;2023-02-19T02:39:00;99810;;;5.1;100.0
68320;BME280;55168;51.120;17.024;2023-02-19T02:40:00;99810;;;5.1;100.0
68320;BME280;55168;51.120;17.024;2023-02-19T02:41:00;99820;;;5.1;100.0
68320;BME280;55168;51.120;17.024;2023-02-19T02:42:00;99810;;;5.1;100.0
68320;BME280;55168;51.120;17.024;2023-02-19T02:43:00;99810;;;5.1;100.0
68320;BME280;55168;51.120;17.024;2023-02-19T02:44:00;99810;;;5.1;100.0
68320;BME280;55168;51.120;17.024;2023-02-19T02:46:00;99810;;;5.1;100.0
68320;BME280;55168;51.120;17.024;2023-02-19T02:47:00;99810;;;5.1;100.0
68320;BME280;55168;51.120;17.024;2023-02-19T02:48:01;99810;;;5.0;100.0
68320;BME280;55168;51.120;17.024;2023-02-19T02:49:02;99810;;;5.0;100.0
68320;BME280;55168;51.120;17.024;2023-02-19T02:50:00;99810;;;5.0;100.0
68320;BME280;55168;51.120;17.024;2023-02-19T02:51:09;99810;;;5.0;100.0
68320;BME280;55168;51.120;17.024;2023-02-19T02:52:00;99810;;;5.0;100.0
68320;BME280;55168;51.120;17.024;2023-02-19T02:53:01;99820;;;5.0;100.0
68320;BME280;55168;51.120;17.024;2023-02-19T02:54:05;99810;;;5.0;100.0
68320;BME280;55168;51.120;17.024;2023-02-19T02:55:00;99810;;;5.1;100.0
68320;BME280;55168;51.120;17.024;2023-02-19T02:56:00;99810;;;5.1;100.0
68320;BME280;55168;51.120;17.024;2023-02-19T02:57:00;99810;;;5.0;100.0
68320;BME280;55168;51.120;17.024;2023-02-19T02:58:00;99800;;;5.0;100.0
68320;BME280;55168;51.120;17.024;2023-02-19T02:59:00;99800;;;5.0;100.0
68320;BME280;55168;51.120;17.024;2023-02-19T03:00:00;99800;;;5.0;100.0
68320;BME280;55168;51.120;17.024;2023-02-19T03:01:02;99800;;;5.1;100.0
68320;BME280;55168;51.120;17.024;2023-02-19T03:02:02;99800;;;5.1;100.0
68320;BME280;55168;51.120;17.024;2023-02-19T03:03:00;99800;;;5.1;100.0
68320;BME280;55168;51.120;17.024;2023-02-19T03:04:01;99810;;;5.1;100.0
68320;BME280;55168;51.120;17.024;2023-02-19T03:06:01;99800;;;5.0;100.0
68320;BME280;55168;51.120;17.024;2023-02-19T03:07:02;99800;;;5.1;100.0
68320;BME280;55168;51.120;17.024;2023-02-19T03:08:17;99800;;;5.1;100.0
68320;BME280;55168;51.120;17.024;2023-02-19T03:09:03;99800;;;5.1;100.0
68320;BME280;55168;51.120;17.024;2023-02-19T03:10:00;99800;;;5.1;100.0
68320;BME280;55168;51.120;17.024;2023-02-19T03:11:01;99800;;;5.1;100.0
68320;BME280;55168;51.120;17.024;2023-02-19T03:12:00;99800;;;5.1;100.0
68320;BME280;55168;51.120;17.024;2023-02-19T03:13:00;99800;;;5.1;100.0
68320;BME280;55168;51.120;17.024;2023-02-19T03:14:03;99800;;;5.1;100.0
68320;BME280;55168;51.120;17.024;2023-02-19T03:15:01;99800;;;5.1;100.0
68320;BME280;55168;51.120;17.024;2023-02-19T03:16:01;99790;;;5.1;100.0
68320;BME280;55168;51.120;17.024;2023-02-19T03:17:06;99790;;;5.1;100.0
68320;BME280;55168;51.120;17.024;2023-02-19T03:18:01;99790;;;5.1;100.0
68320;BME280;55168;51.120;17.024;2023-02-19T03:19:00;99800;;;5.1;100.0
68320;BME280;55168;51.120;17.024;2023-02-19T03:20:00;99800;;;5.1;100.0
68320;BME280;55168;51.120;17.024;2023-02-19T03:21:00;99800;;;5.1;100.0
68320;BME280;55168;51.120;17.024;2023-02-19T03:22:01;99790;;;5.1;100.0
68320;BME280;55168;51.120;17.024;2023-02-19T03:23:00;99790;;;5.1;100.0
68320;BME280;55168;51.120;17.024;2023-02-19T03:24:00;99800;;;5.1;100.0
68320;BME280;55168;51.120;17.024;2023-02-19T03:25:04;99800;;;5.1;100.0
68320;BME280;55168;51.120;17.024;2023-02-19T03:26:00;99800;;;5.1;100.0
68320;BME280;55168;51.120;17.024;2023-02-19T03:27:00;99800;;;5.1;100.0
68320;BME280;55168;51.120;17.024;2023-02-19T03:28:00;99790;;;5.1;100.0
68320;BME280;55168;51.120;17.024;2023-02-19T03:29:00;99790;;;5.1;100.0
68320;BME280;55168;51.120;17.024;2023-02-19T03:30:02;99800;;;5.1;100.0
68320;BME280;55168;51.120;17.024;2023-02-19T03:31:00;99790;;;5.1;100.0
68320;BME280;55168;51.120;17.024;2023-02-19T03:32:01;99790;;;5.1;100.0
68320;BME280;55168;51.120;17.024;2023-02-19T03:34:01;99780;;;5.1;100.0
68320;BME280;55168;51.120;17.024;2023-02-19T03:35:04;99780;;;5.1;100.0
68320;BME280;55168;51.120;17.024;2023-02-19T03:36:01;99770;;;5.1;100.0
68320;BME280;55168;51.120;17.024;2023-02-19T03:37:05;99770;;;5.1;100.0
68320;BME280;55168;51.120;17.024;2023-02-19T03:39:04;99770;;;5.1;100.0
68320;BME280;55168;51.120;17.024;2023-02-19T03:40:00;99760;;;5.1;100.0
68320;BME280;55168;51.120;17.024;2023-02-19T03:41:05;99760;;;5.1;100.0
68320;BME280;55168;51.120;17.024;2023-02-19T03:42:01;99760;;;5.1;100.0
68320;BME280;55168;51.120;17.024;2023-02-19T03:44:17;99760;;;5.1;100.0
68320;BME280;55168;51.120;17.024;2023-02-19T03:48:06;99750;;;5.1;100.0
68320;BME280;55168;51.120;17.024;2023-02-19T03:49:01;99750;;;5.1;100.0
68320;BME280;55168;51.120;17.024;2023-02-19T03:52:01;99750;;;5.1;100.0
68320;BME280;55168;51.120;17.024;2023-02-19T03:53:03;99750;;;5.1;100.0
68320;BME280;55168;51.120;17.024;2023-02-19T03:56:05;99760;;;5.0;100.0
68320;BME280;55168;51.120;17.024;2023-02-19T03:57:02;99760;;;5.1;100.0
68320;BME280;55168;51.120;17.024;2023-02-19T03:59:08;99760;;;5.1;100.0
68320;BME280;55168;51.120;17.024;2023-02-19T04:00:09;99760;;;5.1;100.0
68320;BME280;55168;51.120;17.024;2023-02-19T04:01:05;99770;;;5.1;100.0
68320;BME280;55168;51.120;17.024;2023-02-19T04:04:03;99760;;;5.1;100.0
68320;BME280;55168;51.120;17.024;2023-02-19T04:05:02;99770;;;5.1;100.0
68320;BME280;55168;51.120;17.024;2023-02-19T04:06:01;99760;;;5.1;100.0
68320;BME280;55168;51.120;17.024;2023-02-19T04:07:00;99760;;;5.1;100.0
68320;BME280;55168;51.120;17.024;2023-02-19T04:08:03;99760;;;5.1;100.0
68320;BME280;55168;51.120;17.024;2023-02-19T04:09:01;99760;;;5.1;100.0
68320;BME280;55168;51.120;17.024;2023-02-19T04:10:00;99770;;;5.1;100.0
68320;BME280;55168;51.120;17.024;2023-02-19T04:11:00;99760;;;5.1;100.0
68320;BME280;55168;51.120;17.024;2023-02-19T04:12:00;99760;;;5.1;100.0
68320;BME280;55168;51.120;17.024;2023-02-19T04:13:01;99760;;;5.1;100.0
68320;BME280;55168;51.120;17.024;2023-02-19T04:14:02;99760;;;5.1;100.0
68320;BME280;55168;51.120;17.024;2023-02-19T04:15:01;99750;;;5.1;100.0
68320;BME280;55168;51.120;17.024;2023-02-19T04:16:01;99760;;;5.1;100.0
68320;BME280;55168;51.120;17.024;2023-02-19T04:17:00;99760;;;5.1;100.0
68320;BME280;55168;51.120;17.024;2023-02-19T04:18:03;99750;;;5.1;100.0
68320;BME280;55168;51.120;17.024;2023-02-19T04:19:02;99750;;;5.1;100.0
68320;BME280;55168;51.120;17.024;2023-02-19T04:20:01;99760;;;5.2;100.0
68320;BME280;55168;51.120;17.024;2023-02-19T04:21:00;99750;;;5.2;100.0
68320;BME280;55168;51.120;17.024;2023-02-19T04:22:00;99760;;;5.1;100.0
68320;BME280;55168;51.120;17.024;2023-02-19T04:23:00;99750;;;5.2;100.0
68320;BME280;55168;51.120;17.024;2023-02-19T04:24:02;99760;;;5.2;100.0
68320;BME280;55168;51.120;17.024;2023-02-19T04:25:00;99760;;;5.2;100.0
68320;BME280;55168;51.120;17.024;2023-02-19T04:26:00;99760;;;5.2;100.0
68320;BME280;55168;51.120;17.024;2023-02-19T04:27:00;99760;;;5.1;100.0
68320;BME280;55168;51.120;17.024;2023-02-19T04:28:00;99760;;;5.1;100.0
68320;BME280;55168;51.120;17.024;2023-02-19T04:29:00;99760;;;5.1;100.0
68320;BME280;55168;51.120;17.024;2023-02-19T04:30:00;99750;;;5.1;100.0
68320;BME280;55168;51.120;17.024;2023-02-19T04:31:00;99750;;;5.1;100.0
68320;BME280;55168;51.120;17.024;2023-02-19T04:32:00;99750;;;5.2;100.0
68320;BME280;55168;51.120;17.024;2023-02-19T04:33:00;99750;;;5.2;100.0
68320;BME280;55168;51.120;17.024;2023-02-19T04:34:00;99750;;;5.2;100.0
68320;BME280;55168;51.120;17.024;2023-02-19T04:35:00;99760;;;5.2;100.0
68320;BME280;55168;51.120;17.024;2023-02-19T04:36:00;99760;;;5.2;100.0
68320;BME280;55168;51.120;17.024;2023-02-19T04:37:00;99760;;;5.2;100.0
68320;BME280;55168;51.120;17.024;2023-02-19T04:38:00;99760;;;5.2;100.0
68320;BME280;55168;51.120;17.024;2023-02-19T04:39:00;99760;;;5.2;100.0
68320;BME280;55168;51.120;17.024;2023-02-19T04:40:00;99760;;;5.2;100.0
68320;BME280;55168;51.120;17.024;2023-02-19T04:41:00;99760;;;5.2;100.0
68320;BME280;55168;51.120;17.024;2023-02-19T04:42:00;99760;;;5.1;100.0
68320;BME280;55168;51.120;17.024;2023-02-19T04:43:00;99750;;;5.1;100.0
68320;BME280;55168;51.120;17.024;2023-02-19T04:44:00;99750;;;5.1;100.0
68320;BME280;55168;51.120;17.024;2023-02-19T04:45:00;99750;;;5.1;100.0
68320;BME280;55168;51.120;17.024;2023-02-19T04:46:00;99750;;;5.1;100.0
68320;BME280;55168;51.120;17.024;2023-02-19T04:47:00;99750;;;5.1;100.0
68320;BME280;55168;51.120;17.024;2023-02-19T04:48:00;99740;;;5.1;100.0
68320;BME280;55168;51.120;17.024;2023-02-19T04:49:00;99740;;;5.1;100.0
68320;BME280;55168;51.120;17.024;2023-02-19T04:50:00;99750;;;5.1;100.0
68320;BME280;55168;51.120;17.024;2023-02-19T04:51:03;99750;;;5.1;100.0
68320;BME280;55168;51.120;17.024;2023-02-19T04:52:00;99740;;;5.1;100.0
68320;BME280;55168;51.120;17.024;2023-02-19T04:53:00;99750;;;5.1;100.0
68320;BME280;55168;51.120;17.024;2023-02-19T04:54:00;99740;;;5.1;100.0
68320;BME280;55168;51.120;17.024;2023-02-19T04:55:00;99730;;;5.1;100.0
68320;BME280;55168;51.120;17.024;2023-02-19T04:56:16;99740;;;5.1;100.0
68320;BME280;55168;51.120;17.024;2023-02-19T04:57:00;99730;;;5.1;100.0
68320;BME280;55168;51.120;17.024;2023-02-19T04:58:00;99740;;;5.1;100.0
68320;BME280;55168;51.120;17.024;2023-02-19T04:59:00;99730;;;5.1;100.0
68320;BME280;55168;51.120;17.024;2023-02-19T05:00:00;99730;;;5.1;100.0
68320;BME280;55168;51.120;17.024;2023-02-19T05:01:00;99730;;;5.0;100.0
68320;BME280;55168;51.120;17.024;2023-02-19T05:02:00;99730;;;5.0;100.0
68320;BME280;55168;51.120;17.024;2023-02-19T05:03:00;99730;;;5.1;100.0
68320;BME280;55168;51.120;17.024;2023-02-19T05:04:00;99730;;;5.1;100.0
68320;BME280;55168;51.120;17.024;2023-02-19T05:05:00;99720;;;5.1;100.0
68320;BME280;55168;51.120;17.024;2023-02-19T05:06:02;99720;;;5.1;100.0
68320;BME280;55168;51.120;17.024;2023-02-19T05:07:00;99720;;;5.1;100.0
68320;BME280;55168;51.120;17.024;2023-02-19T05:08:00;99720;;;5.1;100.0
68320;BME280;55168;51.120;17.024;2023-02-19T05:09:00;99720;;;5.0;100.0
68320;BME280;55168;51.120;17.024;2023-02-19T05:10:00;99720;;;5.0;100.0
68320;BME280;55168;51.120;17.024;2023-02-19T05:11:01;99720;;;5.0;100.0
68320;BME280;55168;51.120;17.024;2023-02-19T05:12:00;99720;;;5.1;100.0
68320;BME280;55168;51.120;17.024;2023-02-19T05:13:00;99720;;;5.0;100.0
68320;BME280;55168;51.120;17.024;2023-02-19T05:14:00;99720;;;5.0;100.0
68320;BME280;55168;51.120;17.024;2023-02-19T05:15:00;99720;;;5.0;100.0
68320;BME280;55168;51.120;17.024;2023-02-19T05:16:01;99720;;;5.0;100.0
68320;BME280;55168;51.120;17.024;2023-02-19T05:17:00;99720;;;5.0;100.0
68320;BME280;55168;51.120;17.024;2023-02-19T05:18:00;99720;;;5.0;100.0
68320;BME280;55168;51.120;17.024;2023-02-19T05:19:00;99720;;;5.0;100.0
68320;BME280;55168;51.120;17.024;2023-02-19T05:20:00;99720;;;5.1;100.0
68320;BME280;55168;51.120;17.024;2023-02-19T05:21:00;99720;;;5.1;100.0
68320;BME280;55168;51.120;17.024;2023-02-19T05:22:00;99720;;;5.1;100.0
68320;BME280;55168;51.120;17.024;2023-02-19T05:23:00;99710;;;5.1;100.0
68320;BME280;55168;51.120;17.024;2023-02-19T05:24:00;99720;;;5.1;100.0
68320;BME280;55168;51.120;17.024;2023-02-19T05:25:00;99720;;;5.1;100.0
68320;BME280;55168;51.120;17.024;2023-02-19T05:26:16;99720;;;5.1;100.0
68320;BME280;55168;51.120;17.024;2023-02-19T05:27:00;99720;;;5.1;100.0
68320;BME280;55168;51.120;17.024;2023-02-19T05:28:00;99730;;;5.1;100.0
68320;BME280;55168;51.120;17.024;2023-02-19T05:29:00;99720;;;5.0;100.0
68320;BME280;55168;51.120;17.024;2023-02-19T05:30:00;99720;;;5.1;100.0
68320;BME280;55168;51.120;17.024;2023-02-19T05:31:03;99720;;;5.1;100.0
68320;BME280;55168;51.120;17.024;2023-02-19T05:32:00;99720;;;5.1;100.0
68320;BME280;55168;51.120;17.024;2023-02-19T05:33:00;99720;;;5.0;100.0
68320;BME280;55168;51.120;17.024;2023-02-19T05:34:00;99720;;;5.0;100.0
68320;BME280;55168;51.120;17.024;2023-02-19T05:35:00;99710;;;5.0;100.0
68320;BME280;55168;51.120;17.024;2023-02-19T05:36:03;99710;;;5.0;100.0
68320;BME280;55168;51.120;17.024;2023-02-19T05:37:00;99710;;;5.0;100.0
68320;BME280;55168;51.120;17.024;2023-02-19T05:38:00;99710;;;5.0;100.0
68320;BME280;55168;51.120;17.024;2023-02-19T05:39:00;99710;;;5.0;100.0
68320;BME280;55168;51.120;17.024;2023-02-19T05:40:00;99710;;;5.0;100.0
68320;BME280;55168;51.120;17.024;2023-02-19T05:41:16;99710;;;5.0;100.0
68320;BME280;55168;51.120;17.024;2023-02-19T05:42:00;99710;;;5.0;100.0
68320;BME280;55168;51.120;17.024;2023-02-19T05:43:00;99710;;;5.0;100.0
68320;BME280;55168;51.120;17.024;2023-02-19T05:44:00;99700;;;5.0;100.0
68320;BME280;55168;51.120;17.024;2023-02-19T05:45:00;99710;;;5.0;100.0
68320;BME280;55168;51.120;17.024;2023-02-19T05:46:00;99710;;;5.0;100.0
68320;BME280;55168;51.120;17.024;2023-02-19T05:47:00;99710;;;5.0;100.0
68320;BME280;55168;51.120;17.024;2023-02-19T05:48:00;99710;;;5.0;100.0
68320;BME280;55168;51.120;17.024;2023-02-19T05:49:00;99710;;;5.0;100.0
68320;BME280;55168;51.120;17.024;2023-02-19T05:50:00;99710;;;5.0;100.0
68320;BME280;55168;51.120;17.024;2023-02-19T05:51:01;99710;;;5.0;100.0
68320;BME280;55168;51.120;17.024;2023-02-19T05:52:00;99710;;;5.0;100.0
68320;BME280;55168;51.120;17.024;2023-02-19T05:53:00;99710;;;5.0;100.0
68320;BME280;55168;51.120;17.024;2023-02-19T05:54:00;99720;;;5.0;100.0
68320;BME280;55168;51.120;17.024;2023-02-19T05:55:00;99710;;;5.0;100.0
68320;BME280;55168;51.120;17.024;2023-02-19T05:56:00;99720;;;5.0;100.0